createdAt,value
2023-02-16T00:00:27.246Z,10.54
2023-02-16T00:02:54.481Z,10.57
2023-02-16T00:05:34.556Z,10.60
2023-02-16T00:08:02.003Z,10.63
2023-02-16T00:10:34.733Z,10.65
2023-02-16T00:13:21.046Z,10.68
2023-02-16T00:15:48.083Z,10.69
2023-02-16T00:18:20.449Z,10.71
2023-02-16T00:20:49.707Z,10.73
2023-02-16T00:23:16.586Z,10.73
2023-02-16T00:25:43.452Z,10.77
2023-02-16T00:28:19.536Z,10.78
2023-02-16T00:30:46.642Z,10.80
2023-02-16T00:33:16.500Z,10.82
2023-02-16T00:35:43.730Z,10.84
2023-02-16T00:38:11.515Z,10.86
2023-02-16T00:40:38.392Z,10.88
2023-02-16T00:43:05.663Z,10.89
2023-02-16T00:45:36.386Z,10.90
2023-02-16T00:48:03.913Z,10.92
2023-02-16T00:50:34.441Z,10.96
2023-02-16T00:53:02.868Z,10.98
2023-02-16T00:55:35.436Z,10.99
2023-02-16T00:58:05.118Z,11.00
2023-02-16T01:00:38.104Z,11.00
2023-02-16T01:03:09.009Z,11.01
2023-02-16T01:05:36.388Z,11.02
2023-02-16T01:08:25.241Z,11.03
2023-02-16T01:11:10.543Z,11.06
2023-02-16T01:13:47.587Z,11.06
2023-02-16T01:16:25.188Z,11.06
2023-02-16T01:18:53.444Z,11.07
2023-02-16T01:21:22.082Z,11.10
2023-02-16T01:23:49.306Z,11.11
2023-02-16T01:26:18.821Z,11.11
2023-02-16T01:28:45.959Z,11.13
2023-02-16T01:31:14.531Z,11.13
2023-02-16T01:33:42.229Z,11.15
2023-02-16T01:36:33.373Z,11.15
2023-02-16T01:39:01.031Z,11.17
2023-02-16T01:41:39.826Z,11.19
2023-02-16T01:44:17.988Z,11.16
2023-02-16T01:47:02.834Z,11.20
2023-02-16T01:49:29.583Z,11.21
2023-02-16T01:52:31.007Z,11.20
2023-02-16T01:55:10.181Z,11.20
2023-02-16T01:58:05.668Z,11.22
2023-02-16T02:00:52.347Z,11.22
2023-02-16T02:03:50.248Z,11.22
2023-02-16T02:06:21.372Z,11.24
2023-02-16T02:09:20.553Z,11.21
2023-02-16T02:11:56.124Z,11.22
2023-02-16T02:14:30.144Z,11.24
2023-02-16T02:17:05.964Z,11.18
2023-02-16T02:19:57.233Z,11.26
2023-02-16T02:23:04.252Z,11.24
2023-02-16T02:25:55.630Z,11.25
2023-02-16T02:28:41.182Z,11.22
2023-02-16T02:31:37.825Z,11.21
2023-02-16T02:34:18.621Z,11.18
2023-02-16T02:37:02.543Z,11.20
2023-02-16T02:40:15.994Z,11.21
2023-02-16T02:42:53.811Z,11.19
2023-02-16T02:45:28.315Z,11.21
2023-02-16T02:47:55.154Z,11.19
2023-02-16T02:51:03.842Z,11.17
2023-02-16T02:53:31.484Z,11.18
2023-02-16T02:56:20.519Z,11.17
2023-02-16T02:59:11.503Z,11.15
2023-02-16T03:01:43.517Z,11.15
2023-02-16T03:04:14.011Z,11.13
2023-02-16T03:06:47.113Z,11.12
2023-02-16T03:09:15.590Z,11.10
2023-02-16T03:12:01.563Z,11.10
2023-02-16T03:14:46.340Z,11.06
2023-02-16T03:17:52.105Z,11.08
2023-02-16T03:20:38.581Z,11.09
2023-02-16T03:23:25.162Z,11.08
2023-02-16T03:26:11.773Z,11.07
2023-02-16T03:29:00.910Z,11.06
2023-02-16T03:31:35.015Z,11.04
2023-02-16T03:34:02.814Z,11.01
2023-02-16T03:36:32.778Z,11.01
2023-02-16T03:39:00.226Z,10.98
2023-02-16T03:41:31.974Z,10.93
2023-02-16T03:43:58.968Z,10.91
2023-02-16T03:46:25.721Z,10.87
2023-02-16T03:48:52.497Z,10.83
2023-02-16T03:51:19.220Z,10.79
2023-02-16T03:53:46.052Z,10.77
2023-02-16T03:56:13.117Z,10.71
2023-02-16T03:58:39.861Z,10.67
2023-02-16T04:01:06.931Z,10.65
2023-02-16T04:03:34.339Z,10.63
2023-02-16T04:06:01.232Z,10.62
2023-02-16T04:08:27.941Z,10.59
2023-02-16T04:10:56.953Z,10.57
2023-02-16T04:13:24.788Z,10.57
2023-02-16T04:15:51.569Z,10.55
2023-02-16T04:18:18.618Z,10.52
2023-02-16T04:20:45.372Z,10.49
2023-02-16T04:23:12.474Z,10.44
2023-02-16T04:25:39.381Z,10.43
2023-02-16T04:28:06.106Z,10.39
2023-02-16T04:30:32.999Z,10.37
2023-02-16T04:32:59.916Z,10.33
2023-02-16T04:35:26.713Z,10.27
2023-02-16T04:37:53.522Z,10.22
2023-02-16T04:40:20.504Z,10.11
2023-02-16T04:42:47.312Z,10.08
2023-02-16T04:45:14.578Z,10.02
2023-02-16T04:47:41.634Z,9.97
2023-02-16T04:50:09.929Z,9.95
2023-02-16T04:52:37.621Z,9.84
2023-02-16T04:55:05.848Z,9.73
2023-02-16T04:57:32.990Z,9.62
2023-02-16T04:59:59.724Z,9.54
2023-02-16T05:02:26.714Z,9.46
2023-02-16T05:04:53.522Z,9.31
2023-02-16T05:07:20.384Z,9.28
2023-02-16T05:09:47.200Z,9.25
2023-02-16T05:12:32.431Z,9.21
2023-02-16T05:14:59.206Z,9.19
2023-02-16T05:17:27.128Z,9.16
2023-02-16T05:19:59.122Z,9.15
2023-02-16T05:22:28.889Z,9.16
2023-02-16T05:24:55.680Z,9.16
2023-02-16T05:27:27.629Z,9.09
2023-02-16T05:29:54.936Z,9.08
2023-02-16T05:32:22.021Z,9.09
2023-02-16T05:34:48.883Z,9.07
2023-02-16T05:37:17.973Z,9.06
2023-02-16T05:39:45.411Z,9.01
2023-02-16T05:42:12.286Z,9.01
2023-02-16T05:44:39.121Z,8.99
2023-02-16T05:47:05.903Z,9.00
2023-02-16T05:49:32.737Z,8.96
2023-02-16T05:51:59.472Z,8.94
2023-02-16T05:54:28.111Z,8.90
2023-02-16T05:56:55.184Z,8.89
2023-02-16T05:59:22.079Z,8.88
2023-02-16T06:01:51.887Z,8.88
2023-02-16T06:04:20.420Z,8.86
2023-02-16T06:06:47.702Z,8.86
2023-02-16T06:09:14.667Z,8.86
2023-02-16T06:11:41.465Z,8.82
2023-02-16T06:14:13.529Z,8.78
2023-02-16T06:16:41.975Z,8.73
2023-02-16T06:19:09.547Z,8.71
2023-02-16T06:21:37.594Z,8.66
2023-02-16T06:24:05.511Z,8.63
2023-02-16T06:26:32.230Z,8.60
2023-02-16T06:28:59.275Z,8.58
2023-02-16T06:31:26.601Z,8.58
2023-02-16T06:33:54.218Z,8.56
2023-02-16T06:36:21.083Z,8.52
2023-02-16T06:38:48.014Z,8.48
2023-02-16T06:41:31.392Z,8.46
2023-02-16T06:43:59.888Z,8.43
2023-02-16T06:46:27.054Z,8.37
2023-02-16T06:48:54.169Z,8.32
2023-02-16T06:51:21.207Z,8.26
2023-02-16T06:53:48.368Z,8.26
2023-02-16T06:56:15.374Z,8.28
2023-02-16T06:58:42.210Z,8.28
2023-02-16T07:01:09.071Z,8.29
2023-02-16T07:03:36.005Z,8.32
2023-02-16T07:06:02.899Z,8.37
2023-02-16T07:08:29.898Z,8.37
2023-02-16T07:10:56.890Z,8.43
2023-02-16T07:13:23.698Z,8.45
2023-02-16T07:15:50.585Z,8.45
2023-02-16T07:18:17.507Z,8.44
2023-02-16T07:20:44.269Z,8.45
2023-02-16T07:23:11.072Z,8.46
2023-02-16T07:25:37.793Z,8.44
2023-02-16T07:28:04.664Z,8.45
2023-02-16T07:30:31.544Z,8.45
2023-02-16T07:32:58.387Z,8.47
2023-02-16T07:35:25.398Z,8.47
2023-02-16T07:37:52.157Z,8.48
2023-02-16T07:40:19.075Z,8.47
2023-02-16T07:42:45.787Z,8.48
2023-02-16T07:45:15.140Z,8.51
2023-02-16T07:47:41.910Z,8.53
2023-02-16T07:50:09.225Z,8.56
2023-02-16T07:52:35.992Z,8.58
2023-02-16T07:55:03.736Z,8.59
2023-02-16T07:57:30.591Z,8.59
2023-02-16T07:59:57.825Z,8.62
2023-02-16T08:02:24.883Z,8.62
2023-02-16T08:04:54.410Z,8.61
2023-02-16T08:07:21.643Z,8.62
2023-02-16T08:09:50.155Z,8.62
2023-02-16T08:12:17.978Z,8.62
2023-02-16T08:14:46.816Z,8.62
2023-02-16T08:17:14.800Z,8.62
2023-02-16T08:19:41.612Z,8.64
2023-02-16T08:22:09.352Z,8.65
2023-02-16T08:24:36.337Z,8.69
2023-02-16T08:27:04.474Z,8.69
2023-02-16T08:29:32.639Z,8.74
2023-02-16T08:31:59.880Z,8.77
2023-02-16T08:34:26.830Z,8.80
2023-02-16T08:36:56.692Z,8.83
2023-02-16T08:39:30.889Z,8.78
2023-02-16T08:41:58.430Z,8.81
2023-02-16T08:44:26.048Z,8.85
2023-02-16T08:46:55.186Z,8.89
2023-02-16T08:49:24.164Z,8.93
2023-02-16T08:51:56.754Z,8.97
2023-02-16T08:54:29.107Z,9.00
2023-02-16T08:56:57.304Z,9.05
2023-02-16T08:59:27.261Z,9.11
2023-02-16T09:01:55.405Z,9.16
2023-02-16T09:04:22.305Z,9.23
2023-02-16T09:06:49.284Z,9.29
2023-02-16T09:09:16.931Z,9.35
2023-02-16T09:11:43.970Z,9.47
2023-02-16T09:14:11.149Z,9.54
2023-02-16T09:16:39.909Z,9.56
2023-02-16T09:19:07.298Z,9.66
2023-02-16T09:21:34.137Z,9.72
2023-02-16T09:24:03.910Z,9.74
2023-02-16T09:26:34.453Z,9.78
2023-02-16T09:29:02.247Z,9.83
2023-02-16T09:31:32.829Z,9.85
2023-02-16T09:34:21.492Z,9.84
2023-02-16T09:36:49.163Z,9.92
2023-02-16T09:39:17.394Z,9.99
2023-02-16T09:42:11.665Z,10.05
2023-02-16T09:44:50.473Z,10.11
2023-02-16T09:47:31.246Z,10.16
2023-02-16T09:50:04.967Z,10.21
2023-02-16T09:52:40.477Z,10.27
2023-02-16T09:55:20.705Z,10.31
2023-02-16T09:58:19.372Z,10.34
2023-02-16T10:01:00.542Z,10.48
2023-02-16T10:03:46.240Z,10.71
2023-02-16T10:06:13.732Z,11.05
2023-02-16T10:08:50.379Z,11.24
2023-02-16T10:11:38.185Z,11.35
2023-02-16T10:14:32.799Z,11.34
2023-02-16T10:17:15.295Z,11.26
2023-02-16T10:19:57.834Z,11.10
2023-02-16T10:22:39.521Z,11.15
2023-02-16T10:25:14.010Z,11.22
2023-02-16T10:27:44.486Z,11.27
2023-02-16T10:30:21.000Z,11.41
2023-02-16T10:32:58.417Z,11.52
2023-02-16T10:35:48.255Z,11.57
2023-02-16T10:38:32.187Z,11.78
2023-02-16T10:41:14.020Z,12.18
2023-02-16T10:44:11.431Z,12.50
2023-02-16T10:46:42.098Z,12.78
2023-02-16T10:49:13.563Z,12.76
2023-02-16T10:51:41.815Z,12.52
2023-02-16T10:54:17.353Z,12.57
2023-02-16T10:56:52.393Z,12.81
2023-02-16T10:59:24.736Z,12.91
2023-02-16T11:02:17.301Z,12.78
2023-02-16T11:04:47.746Z,12.77
2023-02-16T11:07:22.880Z,12.64
2023-02-16T11:09:55.722Z,12.60
2023-02-16T11:12:38.001Z,12.64
2023-02-16T11:15:19.019Z,12.81
2023-02-16T11:18:04.834Z,12.92
2023-02-16T11:20:35.442Z,12.91
2023-02-16T11:23:44.252Z,12.84
2023-02-16T11:26:11.958Z,12.90
2023-02-16T11:28:46.631Z,12.94
2023-02-16T11:31:31.853Z,13.06
2023-02-16T11:34:06.530Z,13.19
2023-02-16T11:36:40.653Z,13.24
2023-02-16T11:39:22.934Z,13.27
2023-02-16T11:42:19.187Z,13.28
2023-02-16T11:44:53.187Z,13.26
2023-02-16T11:47:22.718Z,13.32
2023-02-16T11:50:04.838Z,13.42
2023-02-16T11:52:32.772Z,13.45
2023-02-16T11:55:02.077Z,13.46
2023-02-16T11:57:35.927Z,13.42
2023-02-16T12:00:14.343Z,13.32
2023-02-16T12:03:19.221Z,13.30
2023-02-16T12:06:14.811Z,13.39
2023-02-16T12:08:49.544Z,13.53
2023-02-16T12:11:26.435Z,13.52
2023-02-16T12:14:36.576Z,13.54
2023-02-16T12:17:08.058Z,13.78
2023-02-16T12:19:42.232Z,13.75
2023-02-16T12:22:14.986Z,13.94
2023-02-16T12:25:02.933Z,13.99
2023-02-16T12:28:05.224Z,13.98
2023-02-16T12:30:56.197Z,13.88
2023-02-16T12:33:44.616Z,13.97
2023-02-16T12:36:52.353Z,13.62
2023-02-16T12:39:28.594Z,13.67
2023-02-16T12:42:14.565Z,13.49
2023-02-16T12:44:48.189Z,13.43
2023-02-16T12:47:24.958Z,13.41
2023-02-16T12:50:14.323Z,13.44
2023-02-16T12:52:43.270Z,13.37
2023-02-16T12:55:31.696Z,13.28
2023-02-16T12:58:08.109Z,13.35
2023-02-16T13:00:41.123Z,13.39
2023-02-16T13:03:24.373Z,13.38
2023-02-16T13:06:07.340Z,13.44
2023-02-16T13:08:43.742Z,13.53
2023-02-16T13:11:10.647Z,13.54
2023-02-16T13:13:38.518Z,13.56
2023-02-16T13:16:46.391Z,13.53
2023-02-16T13:19:14.732Z,13.56
2023-02-16T13:21:53.292Z,13.50
2023-02-16T13:24:51.007Z,13.47
2023-02-16T13:27:42.232Z,13.44
2023-02-16T13:30:36.457Z,13.33
2023-02-16T13:33:24.956Z,13.27
2023-02-16T13:36:03.865Z,13.40
2023-02-16T13:38:48.856Z,13.39
2023-02-16T13:41:43.202Z,13.39
2023-02-16T13:44:34.664Z,13.52
2023-02-16T13:47:02.898Z,13.40
2023-02-16T13:49:32.507Z,13.50
2023-02-16T13:52:00.382Z,13.54
2023-02-16T13:54:37.006Z,13.62
2023-02-16T13:57:04.678Z,13.69
2023-02-16T13:59:37.250Z,13.69
2023-02-16T14:02:12.683Z,13.72
2023-02-16T14:04:39.451Z,13.79
2023-02-16T14:07:09.875Z,13.84
2023-02-16T14:09:39.457Z,13.86
2023-02-16T14:12:12.215Z,13.80
2023-02-16T14:14:41.957Z,13.82
2023-02-16T14:17:15.008Z,13.79
2023-02-16T14:20:27.246Z,13.73
2023-02-16T14:23:00.192Z,13.79
2023-02-16T14:25:29.193Z,13.82
2023-02-16T14:28:05.753Z,13.81
2023-02-16T14:31:12.147Z,13.73
2023-02-16T14:33:41.312Z,13.70
2023-02-16T14:36:16.867Z,13.59
2023-02-16T14:38:51.296Z,13.58
2023-02-16T14:41:24.031Z,13.53
2023-02-16T14:43:55.673Z,13.56
2023-02-16T14:46:40.665Z,13.47
2023-02-16T14:49:29.928Z,13.49
2023-02-16T14:52:30.125Z,13.47
2023-02-16T14:55:24.717Z,13.48
2023-02-16T14:58:47.024Z,13.43
2023-02-16T15:01:16.824Z,13.47
2023-02-16T15:03:52.294Z,13.45
2023-02-16T15:06:35.616Z,13.41
2023-02-16T15:09:06.666Z,13.43
2023-02-16T15:11:56.763Z,13.42
2023-02-16T15:14:25.781Z,13.42
2023-02-16T15:16:53.412Z,13.38
2023-02-16T15:19:28.229Z,13.37
2023-02-16T15:22:17.310Z,13.37
2023-02-16T15:24:44.349Z,13.39
2023-02-16T15:27:22.035Z,13.35
2023-02-16T15:30:19.661Z,13.42
2023-02-16T15:32:59.107Z,13.50
2023-02-16T15:35:39.322Z,13.54
2023-02-16T15:38:17.945Z,13.58
2023-02-16T15:40:45.540Z,13.62
2023-02-16T15:43:31.880Z,13.57
2023-02-16T15:46:00.456Z,13.60
2023-02-16T15:48:27.874Z,13.58
2023-02-16T15:50:59.726Z,13.57
2023-02-16T15:53:38.205Z,13.53
2023-02-16T15:56:25.199Z,13.52
2023-02-16T15:58:53.103Z,13.54
2023-02-16T16:01:31.259Z,13.54
2023-02-16T16:04:00.838Z,13.57
2023-02-16T16:06:34.506Z,13.57
2023-02-16T16:09:02.436Z,13.60
2023-02-16T16:11:29.609Z,13.60
2023-02-16T16:13:56.553Z,13.63
2023-02-16T16:16:23.452Z,13.66
2023-02-16T16:18:53.984Z,13.66
2023-02-16T16:21:29.829Z,13.67
2023-02-16T16:24:09.179Z,13.70
2023-02-16T16:26:56.925Z,13.72
2023-02-16T16:29:31.953Z,13.74
2023-02-16T16:31:59.085Z,13.77
2023-02-16T16:34:52.140Z,13.70
2023-02-16T16:37:34.268Z,13.68
2023-02-16T16:40:20.054Z,13.59
2023-02-16T16:43:05.918Z,13.59
2023-02-16T16:45:38.214Z,13.58
2023-02-16T16:48:28.367Z,13.49
2023-02-16T16:51:16.148Z,13.49
2023-02-16T16:53:53.210Z,13.49
2023-02-16T16:56:20.537Z,13.47
2023-02-16T16:58:51.787Z,13.42
2023-02-16T17:01:19.501Z,13.36
2023-02-16T17:03:46.674Z,13.41
2023-02-16T17:06:17.722Z,13.38
2023-02-16T17:08:45.459Z,13.34
2023-02-16T17:11:33.919Z,13.27
2023-02-16T17:14:10.953Z,13.24
2023-02-16T17:16:42.407Z,13.22
2023-02-16T17:19:12.966Z,13.18
2023-02-16T17:21:39.798Z,13.15
2023-02-16T17:24:10.392Z,13.10
2023-02-16T17:26:37.800Z,13.08
2023-02-16T17:29:05.667Z,13.04
2023-02-16T17:31:33.181Z,12.98
2023-02-16T17:34:00.241Z,12.94
2023-02-16T17:36:27.980Z,12.93
2023-02-16T17:38:55.168Z,12.89
2023-02-16T17:41:26.507Z,12.89
2023-02-16T17:43:53.113Z,12.84
2023-02-16T17:46:21.666Z,12.85
2023-02-16T17:48:55.197Z,12.84
2023-02-16T17:51:24.243Z,12.82
2023-02-16T17:53:51.398Z,12.79
2023-02-16T17:56:21.599Z,12.76
2023-02-16T17:58:49.184Z,12.75
2023-02-16T18:01:17.929Z,12.71
2023-02-16T18:03:45.034Z,12.71
2023-02-16T18:06:19.111Z,12.68
2023-02-16T18:08:46.487Z,12.67
2023-02-16T18:11:13.340Z,12.63
2023-02-16T18:13:40.380Z,12.63
2023-02-16T18:16:08.504Z,12.60
2023-02-16T18:18:39.379Z,12.60
2023-02-16T18:21:06.657Z,12.58
2023-02-16T18:23:34.184Z,12.58
2023-02-16T18:26:00.993Z,12.55
2023-02-16T18:28:30.890Z,12.55
2023-02-16T18:30:58.257Z,12.53
2023-02-16T18:33:25.694Z,12.52
2023-02-16T18:35:54.647Z,12.48
2023-02-16T18:38:23.042Z,12.45
2023-02-16T18:40:51.676Z,12.44
2023-02-16T18:43:19.351Z,12.36
2023-02-16T18:45:46.137Z,12.36
2023-02-16T18:48:13.563Z,12.34
2023-02-16T18:50:40.360Z,12.30
2023-02-16T18:53:07.165Z,12.31
2023-02-16T18:55:34.097Z,12.28
2023-02-16T18:58:02.479Z,12.29
2023-02-16T19:00:29.280Z,12.28
2023-02-16T19:02:57.057Z,12.29
2023-02-16T19:05:24.543Z,12.28
2023-02-16T19:07:51.740Z,12.30
2023-02-16T19:10:19.437Z,12.30
2023-02-16T19:12:46.250Z,12.28
2023-02-16T19:15:13.270Z,12.27
2023-02-16T19:17:40.089Z,12.26
2023-02-16T19:20:09.954Z,12.25
2023-02-16T19:22:37.522Z,12.27
2023-02-16T19:25:06.200Z,12.22
2023-02-16T19:27:33.492Z,12.23
2023-02-16T19:30:00.359Z,12.26
2023-02-16T19:32:27.220Z,12.25
2023-02-16T19:34:53.966Z,12.26
2023-02-16T19:37:21.079Z,12.25
2023-02-16T19:39:47.827Z,12.26
2023-02-16T19:42:14.635Z,12.25
2023-02-16T19:44:41.491Z,12.22
2023-02-16T19:47:08.632Z,12.22
2023-02-16T19:49:36.573Z,12.22
2023-02-16T19:52:04.378Z,12.17
2023-02-16T19:54:34.924Z,12.21
2023-02-16T19:57:03.480Z,12.18
2023-02-16T19:59:31.279Z,12.19
2023-02-16T20:01:59.046Z,12.19
2023-02-16T20:04:25.981Z,12.21
2023-02-16T20:06:54.554Z,12.17
2023-02-16T20:09:22.319Z,12.18
2023-02-16T20:11:50.480Z,12.18
2023-02-16T20:14:17.254Z,12.20
2023-02-16T20:16:44.267Z,12.22
2023-02-16T20:19:11.186Z,12.22
2023-02-16T20:21:38.223Z,12.20
2023-02-16T20:24:05.929Z,12.22
2023-02-16T20:26:38.594Z,12.19
2023-02-16T20:29:09.047Z,12.20
2023-02-16T20:31:38.114Z,12.21
2023-02-16T20:34:06.173Z,12.21
2023-02-16T20:36:33.199Z,12.19
2023-02-16T20:38:59.988Z,12.16
2023-02-16T20:41:27.150Z,12.16
2023-02-16T20:43:53.919Z,12.15
2023-02-16T20:46:23.634Z,12.11
2023-02-16T20:48:51.390Z,12.11
2023-02-16T20:51:19.295Z,12.11
2023-02-16T20:53:46.457Z,12.08
2023-02-16T20:56:21.790Z,12.11
2023-02-16T20:58:49.974Z,12.10
2023-02-16T21:01:21.958Z,12.10
2023-02-16T21:03:49.941Z,12.10
2023-02-16T21:06:17.296Z,12.10
2023-02-16T21:08:44.552Z,12.09
2023-02-16T21:11:11.610Z,12.11
2023-02-16T21:13:39.625Z,12.10
2023-02-16T21:16:07.740Z,12.11
2023-02-16T21:18:39.988Z,12.06
2023-02-16T21:21:08.376Z,12.10
2023-02-16T21:23:35.521Z,12.07
2023-02-16T21:26:05.909Z,12.10
2023-02-16T21:28:33.367Z,12.09
2023-02-16T21:31:10.354Z,12.09
2023-02-16T21:33:37.855Z,12.13
2023-02-16T21:36:07.168Z,12.13
2023-02-16T21:38:35.720Z,12.12
2023-02-16T21:41:25.336Z,12.10
2023-02-16T21:43:58.530Z,12.10
2023-02-16T21:46:25.987Z,12.11
2023-02-16T21:48:52.822Z,12.10
2023-02-16T21:51:24.387Z,12.07
2023-02-16T21:53:52.081Z,12.03
2023-02-16T21:56:39.695Z,12.02
2023-02-16T21:59:09.604Z,12.07
2023-02-16T22:01:40.233Z,12.06
2023-02-16T22:04:07.060Z,12.12
2023-02-16T22:06:46.952Z,12.11
2023-02-16T22:09:20.316Z,12.13
2023-02-16T22:11:48.396Z,12.17
2023-02-16T22:14:15.468Z,12.17
2023-02-16T22:16:45.578Z,12.16
2023-02-16T22:19:15.104Z,12.19
2023-02-16T22:21:43.828Z,12.19
2023-02-16T22:24:12.840Z,12.20
2023-02-16T22:26:39.809Z,12.21
2023-02-16T22:29:08.020Z,12.20
2023-02-16T22:31:36.186Z,12.20
2023-02-16T22:34:11.689Z,12.18
2023-02-16T22:36:38.575Z,12.22
2023-02-16T22:39:05.360Z,12.21
2023-02-16T22:41:32.668Z,12.22
2023-02-16T22:44:00.100Z,12.22
2023-02-16T22:46:28.782Z,12.23
2023-02-16T22:48:58.632Z,12.24
2023-02-16T22:51:29.420Z,12.23
2023-02-16T22:53:58.216Z,12.24
2023-02-16T22:56:27.065Z,12.22
2023-02-16T22:58:57.158Z,12.25
2023-02-16T23:01:25.383Z,12.25
2023-02-16T23:03:54.431Z,12.26
2023-02-16T23:06:23.975Z,12.24
2023-02-16T23:08:56.513Z,12.26
2023-02-16T23:11:24.098Z,12.27
2023-02-16T23:13:51.142Z,12.26
2023-02-16T23:16:21.510Z,12.26
2023-02-16T23:18:48.712Z,12.27
2023-02-16T23:21:18.305Z,12.25
2023-02-16T23:23:45.971Z,12.26
2023-02-16T23:26:13.020Z,12.24
2023-02-16T23:28:40.846Z,12.25
2023-02-16T23:31:08.094Z,12.27
2023-02-16T23:33:35.226Z,12.26
2023-02-16T23:36:02.031Z,12.26
2023-02-16T23:38:28.884Z,12.27
2023-02-16T23:41:06.606Z,12.26
2023-02-16T23:43:33.538Z,12.31
2023-02-16T23:46:01.615Z,12.30
2023-02-16T23:48:29.036Z,12.25
2023-02-16T23:50:56.175Z,12.27
2023-02-16T23:53:25.006Z,12.24
2023-02-16T23:56:08.169Z,12.20
2023-02-16T23:58:41.237Z,12.21
